Time;durP1;ratioP1;P1;durP2;ratioP2;P2;SDS_P1;SDS_P2;PMS_P1;PMS_P2;Temp;Humidity;BMP_temperature;BMP_pressure;BME280_temperature;BME280_humidity;BME280_pressure;Samples;Min_cycle;Max_cycle;Signal;HPM_P1;HPM_P2
2023/03/09 00:00:34;;;;;;;2.55;0.50;;;;;;;-0.54;56.21;99435.69;5092246;28;20023;-64
2023/03/09 00:02:59;;;;;;;1.25;0.50;;;;;;;-0.52;55.78;99439.00;5093491;28;20067;-64
2023/03/09 00:05:25;;;;;;;4.03;0.73;;;;;;;-0.55;56.12;99434.06;5095677;28;20480;-64
2023/03/09 00:07:53;;;;;;;0.98;0.60;;;;;;;-0.52;55.67;99439.00;5114129;28;20020;-64
2023/03/09 00:10:18;;;;;;;2.72;0.82;;;;;;;-0.48;56.08;99432.41;5098172;28;20324;-65
2023/03/09 00:12:44;;;;;;;1.02;0.50;;;;;;;-0.49;55.45;99433.41;5092722;28;20085;-64
2023/03/09 00:15:10;;;;;;;2.00;0.60;;;;;;;-0.50;55.20;99437.06;5094471;28;20044;-64
2023/03/09 00:17:35;;;;;;;1.98;0.60;;;;;;;-0.61;55.29;99418.03;5094063;28;20046;-64
2023/03/09 00:20:17;;;;;;;1.63;0.80;;;;;;;-0.47;55.08;99436.69;5093554;28;20060;-64
2023/03/09 00:22:46;;;;;;;0.95;0.50;;;;;;;-0.45;55.13;99425.16;5093591;28;20024;-65
2023/03/09 00:25:13;;;;;;;2.35;0.60;;;;;;;-0.46;55.41;99426.97;5093840;28;20055;-64
2023/03/09 00:27:41;;;;;;;2.17;0.80;;;;;;;-0.44;55.07;99429.44;5093807;28;20031;-64
2023/03/09 00:30:08;;;;;;;2.25;0.57;;;;;;;-0.41;55.46;99429.94;5093869;28;20035;-64
2023/03/09 00:32:34;;;;;;;1.05;0.63;;;;;;;-0.40;54.82;99420.19;5093651;28;20035;-64
2023/03/09 00:34:59;;;;;;;2.55;0.70;;;;;;;-0.38;54.98;99408.47;5092683;28;20106;-64
2023/03/09 00:37:24;;;;;;;2.75;0.70;;;;;;;-0.36;55.30;99418.91;5098203;28;20040;-64
2023/03/09 00:39:50;;;;;;;2.35;0.60;;;;;;;-0.35;55.37;99418.72;5112480;28;20016;-64
2023/03/09 00:42:15;;;;;;;3.75;0.80;;;;;;;-0.36;54.96;99414.44;5093982;28;20564;-64
2023/03/09 00:44:41;;;;;;;1.35;0.50;;;;;;;-0.35;55.48;99407.34;5092054;28;20031;-64
2023/03/09 00:47:06;;;;;;;1.02;0.60;;;;;;;-0.32;55.70;99407.00;5092015;28;20325;-64
2023/03/09 00:49:31;;;;;;;1.92;0.88;;;;;;;-0.30;55.88;99412.94;5093481;28;20024;-64
2023/03/09 00:51:57;;;;;;;2.00;0.95;;;;;;;-0.26;56.18;99406.38;5109037;28;20039;-64
2023/03/09 00:54:22;;;;;;;1.95;0.70;;;;;;;-0.19;55.82;99399.44;5102912;28;20503;-65
2023/03/09 00:56:48;;;;;;;3.50;1.20;;;;;;;-0.14;56.25;99402.38;5093093;28;20044;-64
2023/03/09 00:59:13;;;;;;;4.28;0.80;;;;;;;-0.11;55.87;99394.13;5091887;28;20039;-64
2023/03/09 01:01:39;;;;;;;2.30;0.90;;;;;;;0.01;55.85;99401.75;5092113;28;20032;-65
2023/03/09 01:04:05;;;;;;;3.60;0.90;;;;;;;0.05;55.03;99389.84;5091402;28;20079;-64
2023/03/09 01:06:30;;;;;;;2.22;0.60;;;;;;;0.09;55.17;99383.22;5092236;28;20059;-64
2023/03/09 01:08:56;;;;;;;3.72;1.10;;;;;;;0.12;54.93;99388.19;5092970;28;20036;-64
2023/03/09 01:11:22;;;;;;;2.15;0.60;;;;;;;0.11;54.86;99378.59;5092506;28;20418;-65
2023/03/09 01:13:47;;;;;;;2.25;0.75;;;;;;;0.14;54.86;99388.84;5092917;28;20063;-64
2023/03/09 01:16:13;;;;;;;3.35;0.90;;;;;;;0.10;54.66;99380.44;5092843;28;20069;-64
2023/03/09 01:18:39;;;;;;;2.08;0.63;;;;;;;0.12;54.64;99382.88;5092686;28;20027;-64
2023/03/09 01:21:05;;;;;;;4.47;0.50;;;;;;;0.01;54.14;99359.44;5092602;28;20554;-64
2023/03/09 01:23:31;;;;;;;2.80;0.70;;;;;;;0.09;54.64;99372.66;5092443;28;20083;-64
2023/03/09 01:25:56;;;;;;;1.15;0.65;;;;;;;0.16;54.90;99373.63;5098889;28;20118;-64
2023/03/09 01:28:22;;;;;;;1.70;0.80;;;;;;;0.01;54.96;99354.97;5094650;28;20028;-64
2023/03/09 01:30:47;;;;;;;2.13;0.60;;;;;;;0.14;55.19;99370.34;5092840;28;20111;-64
2023/03/09 01:33:13;;;;;;;2.90;0.95;;;;;;;0.10;55.53;99375.13;5092629;28;20285;-64
2023/03/09 01:35:39;;;;;;;2.88;0.90;;;;;;;0.11;55.54;99370.66;5094316;28;20080;-64
2023/03/09 01:38:05;;;;;;;3.92;1.00;;;;;;;0.14;55.95;99365.03;5099211;28;20020;-64
2023/03/09 01:40:31;;;;;;;2.58;0.63;;;;;;;0.24;56.13;99368.34;5108425;28;20028;-64
2023/03/09 01:43:00;;;;;;;3.90;0.70;;;;;;;0.29;56.50;99358.06;5101947;28;20366;-64
2023/03/09 01:45:25;;;;;;;4.20;1.02;;;;;;;0.42;56.23;99365.47;5092864;28;20070;-64
2023/03/09 01:47:50;;;;;;;4.55;0.90;;;;;;;0.45;56.74;99365.16;5095787;28;20032;-64
2023/03/09 01:50:24;;;;;;;1.67;0.75;;;;;;;0.51;56.48;99366.28;5095992;28;20020;-64
2023/03/09 01:52:53;;;;;;;3.20;0.80;;;;;;;0.50;57.16;99361.97;5096163;28;20031;-64
2023/03/09 01:55:24;;;;;;;2.35;0.90;;;;;;;0.56;57.14;99353.34;5094973;28;20023;-64
2023/03/09 01:57:59;;;;;;;2.47;0.80;;;;;;;0.59;57.38;99360.97;5094517;28;20031;-64
2023/03/09 02:00:25;;;;;;;;;;;;;;;0.58;58.65;99356.69;5095330;28;20036;-64
2023/03/09 02:03:05;;;;;;;2.08;0.60;;;;;;;0.60;57.76;99354.69;5095807;28;19937;-64
2023/03/09 02:05:45;;;;;;;1.83;0.65;;;;;;;0.66;58.05;99352.19;5095231;28;20061;-64
2023/03/09 02:08:12;;;;;;;2.05;0.60;;;;;;;0.70;57.94;99350.84;5101636;28;20024;-64
2023/03/09 02:10:46;;;;;;;3.05;0.43;;;;;;;0.77;57.77;99352.81;5103295;28;20016;-64
2023/03/09 02:13:19;;;;;;;1.57;0.33;;;;;;;0.85;57.96;99350.94;5100054;28;20526;-64
2023/03/09 02:15:45;;;;;;;4.40;0.60;;;;;;;0.81;58.30;99351.47;5097280;28;20253;-64
2023/03/09 02:18:10;;;;;;;2.50;0.60;;;;;;;0.85;58.45;99352.75;5095527;28;20034;-64
2023/03/09 02:20:59;;;;;;;3.45;0.90;;;;;;;0.93;58.66;99350.91;5094058;28;20507;-64
2023/03/09 02:23:30;;;;;;;1.67;0.45;;;;;;;0.92;58.62;99343.94;5063366;28;20055;-64
2023/03/09 02:26:03;;;;;;;2.00;0.55;;;;;;;1.03;58.89;99345.41;5095108;28;20031;-64
2023/03/09 02:28:29;;;;;;;4.07;1.10;;;;;;;1.05;59.15;99343.41;5094671;28;20049;-64
2023/03/09 02:30:54;;;;;;;2.17;0.70;;;;;;;0.81;59.17;99293.22;5094608;28;20444;-64
2023/03/09 02:33:25;;;;;;;2.95;0.98;;;;;;;1.21;59.44;99342.50;5095070;28;20034;-64
2023/03/09 02:35:55;;;;;;;3.63;0.88;;;;;;;1.20;60.03;99340.84;5094715;28;20035;-64
2023/03/09 02:38:21;;;;;;;3.65;0.70;;;;;;;1.19;60.18;99344.47;5094927;28;20035;-64
2023/03/09 02:40:47;;;;;;;2.28;0.85;;;;;;;1.25;59.67;99335.84;5094961;28;20036;-65
2023/03/09 02:43:13;;;;;;;2.42;0.60;;;;;;;1.25;59.53;99322.59;5095193;28;20389;-64
2023/03/09 02:45:38;;;;;;;1.15;0.40;;;;;;;1.42;59.12;99341.84;5093474;28;20497;-65
2023/03/09 02:48:04;;;;;;;4.00;0.55;;;;;;;1.47;58.79;99339.50;5094599;28;20036;-64
2023/03/09 02:50:29;;;;;;;2.95;0.40;;;;;;;1.33;58.90;99327.84;5093544;28;20035;-65
2023/03/09 02:52:55;;;;;;;2.08;0.50;;;;;;;1.53;58.89;99344.09;5095036;28;20375;-64
2023/03/09 02:55:20;;;;;;;2.95;0.52;;;;;;;1.59;58.90;99347.84;5094353;28;20773;-64
2023/03/09 02:57:46;;;;;;;2.35;0.55;;;;;;;1.57;59.13;99340.09;5092340;28;20043;-64
2023/03/09 03:00:13;;;;;;;3.50;0.63;;;;;;;1.62;59.44;99335.09;5094053;28;20061;-64
2023/03/09 03:02:39;;;;;;;3.30;0.90;;;;;;;1.71;59.55;99337.69;5094738;28;20047;-65
2023/03/09 03:05:06;;;;;;;5.22;0.63;;;;;;;1.80;59.83;99340.09;5094800;28;20020;-65
2023/03/09 03:07:32;;;;;;;2.55;0.60;;;;;;;1.81;60.52;99343.56;5093140;28;20160;-65
2023/03/09 03:09:57;;;;;;;3.92;1.02;;;;;;;1.86;60.62;99342.03;5093620;28;20122;-64
2023/03/09 03:12:23;;;;;;;3.45;0.80;;;;;;;1.80;60.90;99337.44;5094670;28;20486;-64
2023/03/09 03:14:48;;;;;;;4.63;0.80;;;;;;;1.90;61.63;99336.38;5095001;28;20023;-64
2023/03/09 03:17:14;;;;;;;2.13;0.85;;;;;;;1.93;61.66;99336.84;5100236;28;20124;-65
2023/03/09 03:19:40;;;;;;;4.07;0.90;;;;;;;1.84;61.35;99322.81;5103654;28;20060;-64
2023/03/09 03:22:06;;;;;;;2.20;0.43;;;;;;;1.91;62.03;99340.66;5096862;28;20039;-64
2023/03/09 03:24:35;;;;;;;4.28;0.90;;;;;;;1.92;62.48;99337.84;5094461;28;20027;-64
2023/03/09 03:27:01;;;;;;;3.08;1.00;;;;;;;1.96;62.11;99339.13;5096795;28;20035;-64
2023/03/09 03:29:26;;;;;;;2.78;1.10;;;;;;;2.04;62.89;99346.19;5095925;28;20024;-64
2023/03/09 03:31:52;;;;;;;3.13;1.00;;;;;;;2.06;62.76;99338.88;5100437;28;20028;-64
2023/03/09 03:34:17;;;;;;;4.40;1.02;;;;;;;2.10;63.54;99340.16;5101323;28;20032;-64
2023/03/09 03:36:42;;;;;;;3.58;1.10;;;;;;;2.13;63.63;99345.09;5097778;28;20032;-64
2023/03/09 03:39:08;;;;;;;6.13;1.10;;;;;;;2.05;64.36;99348.66;5093549;28;20034;-65
2023/03/09 03:41:34;;;;;;;5.43;1.40;;;;;;;1.99;65.41;99340.59;5094028;28;20437;-65
2023/03/09 03:44:00;;;;;;;3.45;1.17;;;;;;;2.07;64.88;99343.16;5093946;28;20051;-64
2023/03/09 03:46:25;;;;;;;10.05;2.00;;;;;;;2.08;65.58;99342.16;5093562;28;20052;-65
2023/03/09 03:48:51;;;;;;;2.38;1.17;;;;;;;2.07;65.80;99346.63;5093733;28;20031;-65
2023/03/09 03:51:16;;;;;;;6.65;1.33;;;;;;;2.16;65.34;99344.75;5093317;28;20412;-65
2023/03/09 03:53:42;;;;;;;5.20;1.30;;;;;;;2.14;66.28;99341.44;5092821;28;20467;-65
2023/03/09 03:56:09;;;;;;;3.42;1.20;;;;;;;2.08;65.39;99336.84;5093446;28;20027;-65
2023/03/09 03:58:34;;;;;;;6.00;1.20;;;;;;;2.09;65.73;99342.00;5091773;28;20389;-64
2023/03/09 04:01:00;;;;;;;5.85;1.33;;;;;;;2.06;66.14;99344.19;5092968;28;20108;-64
2023/03/09 04:03:25;;;;;;;5.72;0.95;;;;;;;2.18;65.82;99341.91;5092841;28;20040;-64
2023/03/09 04:05:50;;;;;;;5.38;1.10;;;;;;;2.15;66.48;99334.28;5092928;28;20032;-64
2023/03/09 04:08:16;;;;;;;4.07;1.20;;;;;;;2.19;66.61;99339.09;5092905;28;20020;-64
2023/03/09 04:10:41;;;;;;;6.20;1.63;;;;;;;2.17;66.33;99332.31;5092912;28;20051;-64
2023/03/09 04:13:07;;;;;;;6.82;1.48;;;;;;;2.20;67.29;99327.44;5093497;28;20545;-64
2023/03/09 04:15:33;;;;;;;6.15;1.30;;;;;;;2.18;67.02;99340.06;5092072;28;20028;-65
2023/03/09 04:17:59;;;;;;;7.40;1.45;;;;;;;2.23;67.31;99326.28;5093227;28;20032;-65
2023/03/09 04:20:25;;;;;;;5.85;1.67;;;;;;;2.28;66.92;99326.53;5092613;28;20047;-64
2023/03/09 04:22:50;;;;;;;3.88;1.40;;;;;;;2.33;67.65;99325.00;5092984;28;20070;-65
2023/03/09 04:25:16;;;;;;;5.13;1.30;;;;;;;2.29;68.59;99326.38;5093007;28;20016;-65
2023/03/09 04:27:42;;;;;;;5.82;1.50;;;;;;;2.40;67.92;99325.09;5095849;28;20035;-64
2023/03/09 04:30:09;;;;;;;6.18;1.70;;;;;;;2.45;68.08;99329.84;5103690;28;20066;-65
2023/03/09 04:32:34;;;;;;;4.22;1.30;;;;;;;2.41;68.41;99323.25;5098499;28;20024;-65
2023/03/09 04:35:00;;;;;;;5.10;1.48;;;;;;;2.41;69.05;99328.56;5095152;28;20081;-64
2023/03/09 04:37:25;;;;;;;7.47;1.58;;;;;;;2.50;69.15;99330.94;5094174;28;20081;-65
2023/03/09 04:39:51;;;;;;;8.82;1.35;;;;;;;2.50;69.11;99327.47;5097320;28;20016;-65
2023/03/09 04:42:16;;;;;;;6.95;1.80;;;;;;;2.57;68.98;99333.69;5114089;28;20051;-64
2023/03/09 04:44:41;;;;;;;5.38;1.67;;;;;;;2.68;68.92;99325.28;5098356;28;20028;-64
2023/03/09 04:47:12;;;;;;;5.70;1.35;;;;;;;2.65;69.07;99327.44;5092723;28;20032;-65
2023/03/09 04:49:37;;;;;;;5.03;1.60;;;;;;;2.79;69.22;99331.94;5092825;28;20103;-64
2023/03/09 04:52:03;;;;;;;3.95;1.40;;;;;;;2.82;69.12;99339.56;5093245;28;20056;-65
2023/03/09 04:54:28;;;;;;;5.30;1.67;;;;;;;2.80;69.35;99337.06;5093174;28;20027;-65
2023/03/09 04:56:54;;;;;;;8.75;1.92;;;;;;;2.88;69.55;99332.66;5093055;28;20113;-64
2023/03/09 04:59:19;;;;;;;4.82;1.73;;;;;;;2.95;69.58;99344.22;5092533;28;20447;-65
2023/03/09 05:01:45;;;;;;;5.30;1.80;;;;;;;3.06;69.52;99339.22;5092378;28;20020;-65
2023/03/09 05:04:10;;;;;;;7.55;2.17;;;;;;;3.05;69.69;99348.22;5092654;28;20552;-65
2023/03/09 05:06:35;;;;;;;5.20;1.60;;;;;;;3.03;70.10;99336.13;5092404;28;20508;-65
2023/03/09 05:09:04;;;;;;;5.45;1.52;;;;;;;3.17;69.78;99348.53;5093113;28;20305;-65
2023/03/09 05:11:30;;;;;;;7.43;1.70;;;;;;;3.16;70.60;99349.56;5092301;28;20028;-65
2023/03/09 05:13:56;;;;;;;3.45;1.60;;;;;;;3.24;70.72;99348.63;5093146;28;20039;-64
2023/03/09 05:16:21;;;;;;;6.28;1.80;;;;;;;3.29;70.44;99341.72;5093561;28;20040;-63
2023/03/09 05:18:51;;;;;;;7.60;2.42;;;;;;;3.33;69.64;99336.03;5096871;28;20039;-64
2023/03/09 05:21:18;;;;;;;8.23;2.03;;;;;;;3.28;70.89;99341.94;5096795;28;20115;-63
2023/03/09 05:23:43;;;;;;;8.85;1.80;;;;;;;3.25;70.99;99337.81;5096613;28;20043;-64
2023/03/09 05:26:09;;;;;;;6.60;1.85;;;;;;;3.24;71.00;99330.00;5096283;28;20032;-63
2023/03/09 05:28:36;;;;;;;4.85;1.70;;;;;;;3.25;71.51;99329.03;5096173;28;20046;-66
2023/03/09 05:31:02;;;;;;;5.10;1.40;;;;;;;3.26;70.89;99331.47;5096520;28;20081;-63
2023/03/09 05:33:28;;;;;;;8.52;1.90;;;;;;;3.23;70.47;99323.06;5095784;28;20036;-64
2023/03/09 05:35:54;;;;;;;7.28;1.80;;;;;;;3.35;70.72;99331.38;5096516;28;20086;-63
2023/03/09 05:38:19;;;;;;;10.40;2.35;;;;;;;3.28;70.58;99315.34;5096691;28;20032;-63
2023/03/09 05:40:45;;;;;;;7.90;2.22;;;;;;;3.33;69.93;99326.22;5097525;28;20027;-63
2023/03/09 05:43:11;;;;;;;6.43;2.00;;;;;;;3.29;70.94;99330.28;5098979;28;20023;-63
2023/03/09 05:45:36;;;;;;;5.75;2.15;;;;;;;3.26;71.02;99325.34;5096718;28;20450;-63
2023/03/09 05:48:02;;;;;;;4.00;1.95;;;;;;;3.26;70.82;99322.69;5096061;28;20092;-63
2023/03/09 05:50:27;;;;;;;6.47;2.08;;;;;;;3.25;71.59;99326.38;5095632;28;20073;-63
2023/03/09 05:52:53;;;;;;;8.60;2.58;;;;;;;3.33;70.76;99315.59;5095331;28;20115;-63
2023/03/09 05:55:18;;;;;;;8.75;2.40;;;;;;;3.46;70.37;99320.22;5095140;28;20039;-63
2023/03/09 05:57:44;;;;;;;4.97;1.80;;;;;;;3.37;71.17;99324.84;5095712;28;20028;-63
2023/03/09 06:00:10;;;;;;;5.35;1.75;;;;;;;3.26;71.60;99326.16;5094693;28;20093;-63
2023/03/09 06:02:35;;;;;;;5.47;2.17;;;;;;;3.43;70.62;99326.75;5093672;28;20085;-63
2023/03/09 06:05:01;;;;;;;5.07;1.80;;;;;;;3.00;70.86;99260.25;5093791;28;20040;-66
2023/03/09 06:07:28;;;;;;;4.25;1.88;;;;;;;3.30;70.37;99329.25;5093876;28;20063;-64
2023/03/09 06:09:54;;;;;;;3.30;1.40;;;;;;;3.39;70.29;99324.66;5093601;28;20023;-64
2023/03/09 06:12:20;;;;;;;7.55;2.05;;;;;;;3.47;70.03;99327.19;5093789;28;20016;-64
2023/03/09 06:14:50;;;;;;;6.03;1.85;;;;;;;3.58;69.68;99324.03;5093999;28;20098;-64
2023/03/09 06:17:16;;;;;;;4.65;1.40;;;;;;;3.53;70.16;99329.09;5095151;28;20490;-64
2023/03/09 06:19:41;;;;;;;6.88;2.00;;;;;;;3.58;69.65;99332.03;5094811;28;20054;-64
2023/03/09 06:22:07;;;;;;;6.43;1.77;;;;;;;3.63;69.42;99323.44;5095171;28;20059;-64
2023/03/09 06:24:32;;;;;;;6.32;2.03;;;;;;;3.78;68.52;99323.41;5094720;28;20017;-65
2023/03/09 06:26:58;;;;;;;6.32;1.77;;;;;;;3.84;69.20;99333.25;5112582;28;20024;-65
2023/03/09 06:29:25;;;;;;;4.07;1.52;;;;;;;3.71;67.97;99310.84;5095709;28;20024;-64
2023/03/09 06:31:51;;;;;;;5.70;1.50;;;;;;;4.01;67.92;99331.97;5095408;28;20488;-63
2023/03/09 06:34:16;;;;;;;5.53;1.83;;;;;;;3.99;68.27;99332.16;5093915;28;20919;-63
2023/03/09 06:36:42;;;;;;;5.00;1.45;;;;;;;4.15;67.92;99330.25;5094205;28;20028;-66
2023/03/09 06:39:07;;;;;;;6.93;1.75;;;;;;;4.14;67.65;99337.41;5095496;28;20028;-65
2023/03/09 06:41:33;;;;;;;5.45;1.20;;;;;;;4.13;66.82;99329.59;5094650;28;20398;-64
2023/03/09 06:43:58;;;;;;;5.18;1.80;;;;;;;4.16;67.21;99339.88;5095326;28;20024;-65
2023/03/09 06:46:24;;;;;;;3.67;1.20;;;;;;;4.20;66.50;99333.94;5095133;28;20027;-65
2023/03/09 06:48:50;;;;;;;3.38;1.40;;;;;;;4.17;66.66;99341.50;5093546;28;20383;-64
2023/03/09 06:51:17;;;;;;;7.43;1.52;;;;;;;4.12;67.04;99344.75;5095012;28;20032;-65
2023/03/09 06:53:42;;;;;;;2.60;1.27;;;;;;;4.11;67.93;99348.44;5095215;28;20047;-65
2023/03/09 06:56:09;;;;;;;4.60;1.48;;;;;;;4.22;66.97;99355.06;5095015;28;20478;-65
2023/03/09 06:58:34;;;;;;;6.90;1.45;;;;;;;4.17;66.62;99336.19;5095224;28;20102;-64
2023/03/09 07:01:06;;;;;;;7.15;1.70;;;;;;;4.20;67.38;99344.59;5095312;28;20063;-64
2023/03/09 07:03:32;;;;;;;11.85;2.50;;;;;;;4.19;67.94;99339.47;5101458;28;20042;-64
2023/03/09 07:05:57;;;;;;;7.55;1.80;;;;;;;4.29;67.01;99355.13;5099429;28;20134;-63
2023/03/09 07:08:22;;;;;;;8.02;1.90;;;;;;;4.47;67.16;99363.44;5093585;28;20028;-63
2023/03/09 07:10:49;;;;;;;4.80;1.60;;;;;;;4.40;67.13;99352.75;5094380;28;20020;-64
2023/03/09 07:13:15;;;;;;;6.13;1.88;;;;;;;4.55;66.91;99363.28;5094801;28;20078;-63
2023/03/09 07:15:41;;;;;;;4.80;1.55;;;;;;;4.60;66.63;99360.03;5110197;28;20088;-64
2023/03/09 07:18:06;;;;;;;8.27;1.85;;;;;;;4.70;66.46;99366.66;5102450;28;20055;-65
2023/03/09 07:20:32;;;;;;;6.57;1.73;;;;;;;4.75;66.91;99362.59;5094581;28;20117;-65
2023/03/09 07:22:58;;;;;;;6.25;1.60;;;;;;;4.66;67.53;99368.06;5092380;28;20378;-64
2023/03/09 07:25:23;;;;;;;5.28;1.30;;;;;;;4.74;66.95;99368.94;5094211;28;20028;-64
2023/03/09 07:27:49;;;;;;;6.95;1.33;;;;;;;4.85;67.04;99374.53;5094061;28;20460;-64
2023/03/09 07:30:15;;;;;;;7.47;1.35;;;;;;;4.78;67.40;99370.19;5094208;28;20055;-64
2023/03/09 07:32:40;;;;;;;4.75;1.13;;;;;;;4.66;67.99;99378.72;5094371;28;20039;-65
2023/03/09 07:35:07;;;;;;;4.45;1.15;;;;;;;4.57;68.00;99373.72;5093990;28;20513;-64
2023/03/09 07:37:32;;;;;;;4.50;1.00;;;;;;;4.60;68.38;99376.00;5093808;28;20040;-63
2023/03/09 07:39:57;;;;;;;8.45;1.25;;;;;;;4.65;67.66;99386.91;5092936;28;20034;-65
2023/03/09 07:42:23;;;;;;;4.65;1.20;;;;;;;4.71;68.06;99386.97;5093032;28;20445;-65
2023/03/09 07:44:48;;;;;;;6.85;1.13;;;;;;;4.67;67.51;99391.03;5093358;28;20474;-64
2023/03/09 07:47:14;;;;;;;4.72;1.08;;;;;;;4.98;66.81;99392.44;5094167;28;20035;-64
2023/03/09 07:49:39;;;;;;;4.15;0.73;;;;;;;4.94;66.80;99401.84;5093962;28;20356;-64
2023/03/09 07:52:05;;;;;;;1.95;0.50;;;;;;;4.72;67.15;99390.44;5092935;28;20293;-65
2023/03/09 07:54:30;;;;;;;4.18;0.95;;;;;;;4.76;67.55;99393.53;5092656;28;20024;-66
2023/03/09 07:56:55;;;;;;;3.72;0.77;;;;;;;4.78;66.96;99397.66;5093994;28;20398;-65
2023/03/09 07:59:21;;;;;;;5.03;1.00;;;;;;;4.77;67.21;99406.69;5092175;28;20088;-65
2023/03/09 08:01:46;;;;;;;5.13;0.90;;;;;;;4.82;67.49;99398.09;5093597;28;20031;-64
2023/03/09 08:04:13;;;;;;;6.25;1.10;;;;;;;4.90;66.87;99404.09;5093928;28;20479;-65
2023/03/09 08:06:39;;;;;;;3.25;0.70;;;;;;;4.87;67.55;99404.47;5093694;28;20119;-64
2023/03/09 08:09:08;;;;;;;4.07;0.98;;;;;;;5.12;66.42;99403.97;5094043;28;20173;-65
2023/03/09 08:11:34;;;;;;;4.60;1.17;;;;;;;5.35;65.99;99404.47;5093275;28;20024;-66
2023/03/09 08:13:59;;;;;;;5.65;1.00;;;;;;;5.47;65.87;99403.94;5092206;28;20118;-65
2023/03/09 08:16:25;;;;;;;6.45;1.17;;;;;;;5.68;66.07;99410.97;5093466;28;20043;-66
2023/03/09 08:18:50;;;;;;;10.60;1.42;;;;;;;5.98;65.11;99409.59;5093258;28;20043;-64
2023/03/09 08:21:16;;;;;;;9.13;1.17;;;;;;;5.94;65.73;99412.91;5093075;28;20032;-64
2023/03/09 08:23:43;;;;;;;6.45;1.13;;;;;;;5.92;65.68;99415.72;5091533;28;20435;-65
2023/03/09 08:26:11;;;;;;;3.35;0.70;;;;;;;6.09;65.80;99417.03;5092368;28;20339;-66
2023/03/09 08:28:38;;;;;;;2.63;0.90;;;;;;;5.80;66.69;99420.84;5092981;28;20032;-65
2023/03/09 08:31:04;;;;;;;7.15;1.00;;;;;;;5.91;66.86;99427.44;5092524;28;20392;-64
2023/03/09 08:33:30;;;;;;;4.50;0.70;;;;;;;5.87;67.13;99432.34;5108799;28;20047;-65
2023/03/09 08:35:56;;;;;;;11.32;0.93;;;;;;;5.92;67.12;99430.91;5106623;28;20032;-64
2023/03/09 08:38:21;;;;;;;5.75;0.75;;;;;;;5.70;67.50;99433.75;5093656;28;20451;-64
2023/03/09 08:40:47;;;;;;;4.05;0.43;;;;;;;5.49;69.49;99441.88;5092881;28;20036;-65
2023/03/09 08:43:13;;;;;;;4.53;0.93;;;;;;;5.35;70.45;99441.81;5093876;28;20039;-65
2023/03/09 08:45:39;;;;;;;5.03;0.93;;;;;;;5.34;70.32;99439.38;5093484;28;20028;-65
2023/03/09 08:48:05;;;;;;;6.80;0.93;;;;;;;5.32;71.44;99442.22;5093918;28;20076;-65
2023/03/09 08:50:30;;;;;;;3.33;0.70;;;;;;;5.22;71.03;99436.44;5092849;28;20024;-65
2023/03/09 08:52:56;;;;;;;2.20;0.73;;;;;;;5.05;71.99;99435.13;5093000;28;20031;-65
2023/03/09 08:55:21;;;;;;;4.68;1.10;;;;;;;4.92;73.07;99441.19;5092319;28;20050;-65
2023/03/09 08:57:47;;;;;;;5.45;0.90;;;;;;;4.94;72.22;99444.50;5090891;28;20028;-65
2023/03/09 09:00:14;;;;;;;6.68;1.48;;;;;;;4.65;74.02;99442.88;5092973;28;20032;-66
2023/03/09 09:02:40;;;;;;;5.55;1.00;;;;;;;4.56;74.45;99447.50;5092620;28;20028;-66
2023/03/09 09:05:07;;;;;;;4.47;0.90;;;;;;;4.22;76.04;99456.25;5092792;28;20036;-65
2023/03/09 09:07:33;;;;;;;3.60;1.05;;;;;;;4.18;76.33;99454.97;5092407;28;20024;-68
2023/03/09 09:09:59;;;;;;;8.38;1.60;;;;;;;4.20;76.87;99451.09;5091946;28;20078;-67
2023/03/09 09:12:27;;;;;;;4.63;1.30;;;;;;;4.26;77.00;99432.72;5092564;28;20032;-66
2023/03/09 09:14:53;;;;;;;6.05;1.60;;;;;;;4.38;77.29;99444.50;5093033;28;20027;-67
2023/03/09 09:17:19;;;;;;;9.77;1.67;;;;;;;4.19;77.04;99444.13;5093232;28;20111;-67
2023/03/09 09:19:44;;;;;;;3.75;1.42;;;;;;;4.14;79.11;99453.69;5092553;28;20116;-67
2023/03/09 09:22:10;;;;;;;5.70;1.30;;;;;;;3.95;80.94;99457.84;5110782;28;20024;-64
2023/03/09 09:24:36;;;;;;;4.25;1.33;;;;;;;4.27;79.52;99455.66;5104749;28;20040;-66
2023/03/09 09:27:05;;;;;;;4.93;1.48;;;;;;;4.57;78.08;99456.31;5092178;28;20038;-64
2023/03/09 09:29:32;;;;;;;7.82;1.30;;;;;;;5.05;77.31;99462.59;5092778;28;20442;-65
2023/03/09 09:31:59;;;;;;;4.35;1.17;;;;;;;5.48;75.90;99470.41;5093078;28;20111;-65
2023/03/09 09:34:24;;;;;;;6.35;1.55;;;;;;;5.52;76.55;99473.50;5092615;28;20032;-66
2023/03/09 09:36:50;;;;;;;7.35;1.48;;;;;;;5.70;76.36;99478.31;5091498;28;20034;-65
2023/03/09 09:39:16;;;;;;;5.75;1.33;;;;;;;5.30;78.07;99475.47;5092338;28;20046;-65
2023/03/09 09:41:49;;;;;;;6.32;1.58;;;;;;;5.15;78.49;99476.41;5092872;28;20364;-65
2023/03/09 09:44:37;;;;;;;7.60;1.38;;;;;;;4.92;78.83;99478.50;5091686;28;20020;-64
2023/03/09 09:47:06;;;;;;;5.85;1.20;;;;;;;5.22;78.06;99484.44;5092384;28;20027;-66
2023/03/09 09:49:41;;;;;;;3.35;1.00;;;;;;;5.42;77.33;99479.19;5090705;28;20020;-65
2023/03/09 09:52:28;;;;;;;2.83;0.70;;;;;;;5.80;75.80;99486.75;5092277;28;20044;-66
2023/03/09 09:55:11;;;;;;;5.43;0.80;;;;;;;5.96;75.61;99489.09;5092243;28;20023;-65
2023/03/09 09:57:46;;;;;;;2.28;0.68;;;;;;;6.05;74.62;99482.53;5091117;28;20033;-65
2023/03/09 10:00:19;;;;;;;2.53;0.82;;;;;;;5.81;75.15;99493.72;5092212;28;20032;-66
2023/03/09 10:03:23;;;;;;;2.80;0.68;;;;;;;6.03;74.74;99497.94;5092619;28;20088;-65
2023/03/09 10:05:51;;;;;;;4.85;0.88;;;;;;;6.07;74.08;99498.38;5028651;28;20112;-64
2023/03/09 10:08:22;;;;;;;5.47;1.17;;;;;;;5.71;74.59;99498.63;5082228;28;20563;-65
2023/03/09 10:10:49;;;;;;;3.60;0.80;;;;;;;5.56;75.46;99512.09;5095690;28;20054;-66
2023/03/09 10:13:37;;;;;;;1.38;0.30;;;;;;;5.07;76.90;99486.41;5097492;28;20039;-66
2023/03/09 10:16:07;;;;;;;3.92;0.60;;;;;;;4.85;77.60;99490.97;5097383;28;20059;-66
2023/03/09 10:18:37;;;;;;;1.83;0.60;;;;;;;4.86;78.79;99513.94;5097005;28;20081;-64
2023/03/09 10:21:11;;;;;;;4.00;0.50;;;;;;;4.90;78.23;99502.72;5094055;28;20131;-65
2023/03/09 10:23:41;;;;;;;6.45;0.55;;;;;;;4.95;78.04;99500.25;5095698;28;20495;-65
2023/03/09 10:26:47;;;;;;;2.72;0.45;;;;;;;5.02;78.96;99502.16;5095601;28;20092;-66
2023/03/09 10:29:25;;;;;;;4.43;0.60;;;;;;;5.06;78.08;99504.22;5095565;28;20081;-66
2023/03/09 10:31:56;;;;;;;2.97;0.63;;;;;;;5.26;78.29;99507.00;5095560;28;20391;-66
2023/03/09 10:34:25;;;;;;;5.93;0.60;;;;;;;5.16;78.55;99506.53;5095413;28;20032;-66
2023/03/09 10:37:07;;;;;;;2.08;0.65;;;;;;;5.19;78.74;99506.16;5094806;28;20077;-67
2023/03/09 10:39:42;;;;;;;3.05;0.40;;;;;;;5.13;78.54;99501.59;5095313;28;20102;-67
2023/03/09 10:42:21;;;;;;;3.33;0.50;;;;;;;5.16;78.55;99491.38;5095275;28;20026;-67
2023/03/09 10:45:05;;;;;;;2.60;0.40;;;;;;;5.62;78.47;99511.31;5094346;28;20024;-67
2023/03/09 10:47:54;;;;;;;2.50;0.47;;;;;;;5.56;78.51;99509.44;5095088;28;20028;-67
2023/03/09 10:50:21;;;;;;;2.20;0.40;;;;;;;5.93;76.78;99496.66;5095117;28;20028;-66
2023/03/09 10:52:47;;;;;;;5.70;0.63;;;;;;;6.05;76.35;99509.22;5095017;28;20047;-67
2023/03/09 10:55:34;;;;;;;7.00;1.02;;;;;;;5.94;76.80;99515.16;5094945;28;20513;-67
2023/03/09 10:58:14;;;;;;;2.88;0.80;;;;;;;5.79;77.36;99517.13;5095620;28;20034;-67
2023/03/09 11:00:54;;;;;;;5.57;1.10;;;;;;;6.02;77.14;99514.97;5095004;28;20035;-67
2023/03/09 11:03:31;;;;;;;2.72;1.27;;;;;;;5.99;76.54;99518.03;5095642;28;20035;-67
2023/03/09 11:06:15;;;;;;;5.03;1.00;;;;;;;6.09;76.43;99515.84;5094217;28;20031;-67
2023/03/09 11:08:41;;;;;;;7.03;1.30;;;;;;;6.04;76.15;99518.28;5094871;28;20016;-67
2023/03/09 11:11:16;;;;;;;3.90;1.25;;;;;;;5.93;76.17;99518.03;5095131;28;20028;-67
2023/03/09 11:13:45;;;;;;;;;;;;;;;5.81;75.66;99521.25;5095696;28;20024;-67
2023/03/09 11:16:19;;;;;;;3.83;1.50;;;;;;;5.86;75.13;99520.63;5094562;28;20373;-66
2023/03/09 11:18:45;;;;;;;3.50;1.17;;;;;;;5.48;75.45;99512.28;5094155;28;20031;-67
2023/03/09 11:21:22;;;;;;;6.30;1.45;;;;;;;5.36;75.06;99523.50;5094142;28;20294;-67
2023/03/09 11:23:53;;;;;;;3.13;1.15;;;;;;;5.56;74.40;99523.63;5094553;28;20490;-66
2023/03/09 11:26:25;;;;;;;2.67;1.20;;;;;;;5.65;74.08;99517.06;5095008;28;20103;-67
2023/03/09 11:29:06;;;;;;;4.00;1.20;;;;;;;5.62;73.62;99522.81;5095197;28;20026;-66
2023/03/09 11:31:40;;;;;;;2.78;1.00;;;;;;;5.55;74.08;99527.28;5093736;28;20093;-66
2023/03/09 11:34:22;;;;;;;4.30;0.80;;;;;;;5.65;74.02;99532.25;5093368;28;20123;-65
2023/03/09 11:37:23;;;;;;;1.80;0.65;;;;;;;5.73;73.76;99509.91;5093409;28;20141;-68
2023/03/09 11:39:59;;;;;;;11.38;1.30;;;;;;;5.89;73.65;99517.56;5092838;28;20104;-67
2023/03/09 11:42:48;;;;;;;4.97;1.08;;;;;;;5.70;73.63;99524.50;5093234;28;20099;-65
2023/03/09 11:45:18;;;;;;;5.22;1.00;;;;;;;5.88;73.24;99518.59;5094192;28;20134;-64